Custer, WA (98240)

7:10 AM PDT on August 29, 2014 (GMT -0700)
NE Ferndale | Change Station
CLOSE
Current Station
Personal Weather Station
Location: Ferndale, WA
Elevation: 69 ft
Nearby Weather Stations

Elev 69 ft 48.90 °N, 122.58 °W | Updated 2 minutes ago

Overcast
Overcast
59.5 °F
Feels Like 59.5 °F
N
2.0
Wind Variable Wind from SSW
Gusts 4.0 mph

Today
High -- | Low -- °F
--% Chance of Precip.
Yesterday
High -- | Low -- °F
Precip. -- in
6:23 AM 7:58 PM
Waxing Crescent, 14% visible
Pressure 29.96 in
Visibility 10.0 miles
Clouds Few 5000 ft
Mostly Cloudy 7000 ft
Dew Point 53 °F
Humidity 80%
Rainfall 0.00 in
Snow Depth Not available.
UV 0 out of 12
Pollen .80 out of 12
PM2.5 Good
Flu Activity Not available.
METAR KBLI 291353Z 17011G18KT 10SM FEW050 BKN070 16/11 A2994 RMK AO2 SLP144 T01560106

More Conditions Fewer Conditions

Pressure 29.96 in
Visibility 10.0 miles
Clouds Few 5000 ft
Mostly Cloudy 7000 ft
Dew Point 53 °F
Humidity 80%
Rainfall 0.00 in
Snow Depth Not available.
UV 0 out of 12
Pollen .80 out of 12
PM2.5 Good
Flu Activity Not available.
METAR KBLI 291353Z 17011G18KT 10SM FEW050 BKN070 16/11 A2994 RMK AO2 SLP144 T01560106

More Conditions Fewer Conditions

10-Day Weather Forecast

Almanac

Astronomy

Aug. 29, 2014 Rise Set
Actual Time 6:23 AM PDT 7:58 PM PDT
Civil Twilight 5:49 AM PDT 8:31 PM PDT
Nautical Twilight 5:09 AM PDT 9:12 PM PDT
Astronomical Twilight 4:24 AM PDT 9:56 PM PDT
Moon 10:41 AM PDT 9:34 PM PDT
Length of Visible Light 14h 41m
Length of Day
13h 35m
Tomorrow will be 3m 26s shorter.
Waxing Crescent, 14% of the Moon is Illuminated
Today
Waxing Crescent
Sep 2
First Quarter
Sep 8
Full
Sep 15
Last Quarter
Sep 24
New

Today's Extremes

State Highs State Lows

Community

WunderPhotos

Upload Photos

1,748,240 photos uploaded!

Nearby

Air Quality

  Air Quality AQ Index Pollutant
Yesterday Good
OZONE
Yesterday Good
PM2.5
Current Good
PM2.5
Friday Good
OZONE
Friday Good
PM2.5
Saturday Good
OZONE
Saturday Good
PM2.5

Snow Depth

Station Depth Elevation
Mf Nooksack 0 in 4980 ft
Elbow Lake 0 in 3200 ft
Beaver Pass 0 in 3620 ft
Dungeness 0 in 4100 ft
Waterhole 0 in 5000 ft

Earthquake Activity

City Distance Mag. Time & Date
No recent earthquake activity has been reported nearby.
Minimum magnitude displayed is 2.5.

Coastal Water Temperatures

Place Temperature
Port Townsend, WA 54.0 °F
Friday Harbor, WA 53.1 °F
Port Angeles, WA 53.1 °F

Nearby Weather Stations